Flight Track Log - Related Links

Times and Time Zones

All times are in EDT time to prevent confusion due to time zone crossing. See the DAL6241 flight status page for this flight to view local times or setup timezone preferences in your user account.


Time Position Orientation Groundspeed Altitude Reporting Facility
EDT Latitude Longitude Course Direction KTS MPH feet Rate Location/Type
Fri 02:17:07 PM 42.1994 -83.3717 212° Southwest 161 185 1,500  Level Cleveland Center
Fri 02:18:21 PM 42.1456 -83.4178 212° Southwest 211 243 3,800 1,839 Climbing Cleveland Center
Fri 02:19:11 PM 42.1003 -83.4528 210° Southwest 211 243 5,300 2,066 Climbing Cleveland Center
Fri 02:19:22 PM 42.0853 -83.4656 212° Southwest 268 308 5,900 2,667 Climbing Cleveland Center
Fri 02:20:14 PM 42.0333 -83.4931 201° Southwest 254 292 8,100 2,507 Climbing Cleveland Center
Fri 02:20:29 PM 42.0081 -83.4881 172° South 282 325 8,700 2,226 Climbing Cleveland Center
Fri 02:21:16 PM 41.9569 -83.4622 159° South 280 322 10,400 1,817 Climbing Cleveland Center
Fri 02:22:18 PM 41.8700 -83.4269 163° South 311 358 12,000 1,742 Climbing Cleveland Center
Fri 02:23:20 PM 41.7789 -83.3875 162° South 340 391 14,000 1,839 Climbing Cleveland Center
Fri 02:24:22 PM 41.6800 -83.3647 170° South 363 418 15,800 1,742 Climbing Cleveland Center
Fri 02:25:24 PM 41.5797 -83.3983 194° South 371 427 17,600 1,839 Climbing Cleveland Center
Fri 02:26:26 PM 41.4553 -83.4400 194° South 385 443 19,600 1,645 Climbing Cleveland Center
Fri 02:27:28 PM 41.3486 -83.4728 193° South 393 452 21,000 1,258 Climbing Cleveland Center
Fri 02:28:30 PM 41.2383 -83.5089 194° South 404 465 22,200 1,161 Climbing Cleveland Center
Fri 02:29:32 PM 41.1250 -83.5464 194° South 416 479 23,400 1,161 Climbing Cleveland Center
Fri 02:30:34 PM 40.9978 -83.5872 194° South 427 491 24,600 1,065 Climbing Cleveland Center
Fri 02:31:36 PM 40.8775 -83.6247 193° South 441 507 25,600 970 Climbing Cleveland Center
Fri 02:32:13 PM 40.8028 -83.6500 194° South 449 517 26,200 970 Climbing Indianapolis Center
Fri 02:33:15 PM 40.6794 -83.6886 193° South 456 525 27,200 968 Climbing Indianapolis Center
Fri 02:34:17 PM 40.5558 -83.7275 193° South 458 527 28,200 1,016 Climbing Indianapolis Center
Fri 02:35:19 PM 40.4056 -83.7742 193° South 462 532 29,300 919 Climbing Indianapolis Center
Fri 02:36:21 PM 40.2797 -83.8150 194° South 468 539 30,100 774 Climbing Indianapolis Center
Fri 02:37:23 PM 40.1511 -83.8544 193° South 475 547 30,900 774 Climbing Indianapolis Center
Fri 02:38:25 PM 40.0214 -83.8944 193° South 482 555 31,700 726 Climbing Indianapolis Center
Fri 02:39:27 PM 39.8922 -83.9344 193° South 484 557 32,400 774 Climbing Indianapolis Center
Fri 02:40:29 PM 39.7356 -83.9822 193° South 486 559 33,300 774 Climbing Indianapolis Center
Fri 02:41:31 PM 39.6047 -84.0111 190° South 484 557 34,000 677 Climbing Indianapolis Center
Fri 02:42:33 PM 39.4697 -84.0236 184° South 489 563 34,700 677 Climbing Indianapolis Center
Fri 02:43:35 PM 39.3372 -84.0139 177° South 482 555 35,400 774 Climbing Indianapolis Center
Fri 02:44:37 PM 39.1786 -83.9775 170° South 486 559 36,300 774 Climbing Indianapolis Center
Fri 02:45:39 PM 39.0478 -83.9450 169° South 483 556 37,000 672 Climbing Indianapolis Center
Fri 02:46:42 PM 38.9203 -83.9114 168° South 474 545 37,700 480 Climbing Indianapolis Center
Fri 02:47:44 PM 38.7922 -83.8794 169° South 472 543 38,000 145 Climbing Indianapolis Center
Fri 02:48:46 PM 38.6639 -83.8458 168° South 472 543 38,000  Level Indianapolis Center
Fri 02:49:48 PM 38.5133 -83.8081 169° South 470 541 38,000  Level Indianapolis Center
Fri 02:50:50 PM 38.3828 -83.7753 169° South 473 544 38,000  Level Indianapolis Center
Fri 02:51:52 PM 38.2519 -83.7444 170° South 475 547 38,000  Level Indianapolis Center
Fri 02:52:54 PM 38.1228 -83.7131 169° South 473 544 38,000  Level Indianapolis Center
Fri 02:53:56 PM 37.9933 -83.6725 166° South 476 548 38,000  Level Indianapolis Center
Fri 02:54:58 PM 37.8458 -83.6164 163° South 473 544 38,000  Level Indianapolis Center
Fri 02:56:00 PM 37.7183 -83.5692 164° South 475 547 38,000  Level Indianapolis Center
Fri 02:57:02 PM 37.5903 -83.5231 164° South 477 549 38,000  Level Indianapolis Center
Fri 02:58:04 PM 37.4631 -83.4769 164° South 477 549 38,000  Level Indianapolis Center
Fri 02:59:06 PM 37.3364 -83.4303 164° South 475 547 38,000  Level Indianapolis Center
Fri 03:00:08 PM 37.1883 -83.3753 164° South 477 549 38,000  Level Indianapolis Center
Fri 03:01:10 PM 37.0628 -83.3303 164° South 474 545 38,000  Level Indianapolis Center
Fri 03:02:12 PM 36.9378 -83.2858 164° South 470 541 38,000  Level Indianapolis Center
Fri 03:03:14 PM 36.8122 -83.2403 164° South 473 544 38,000  Level Indianapolis Center
Fri 03:04:17 PM 36.6664 -83.1869 164° South 473 544 38,000  Level Indianapolis Center
Fri 03:05:19 PM 36.5419 -83.1408 163° South 470 541 38,000  Level Indianapolis Center
Fri 03:06:21 PM 36.4175 -83.0978 164° South 467 537 38,000  Level Indianapolis Center
Fri 03:07:23 PM 36.2947 -83.0531 164° South 461 531 38,000  Level Indianapolis Center
Fri 03:08:25 PM 36.1703 -83.0092 164° South 464 534 38,000  Level Indianapolis Center
Fri 03:09:29 PM 36.0181 -82.9553 164° South 468 539 38,000  Level Atlanta Center
Fri 03:10:29 PM 35.8925 -82.9133 165° South 463 533 38,000  Level Atlanta Center
Fri 03:11:29 PM 35.7711 -82.8692 164° South 468 539 38,000  Level Atlanta Center
Fri 03:12:29 PM 35.6433 -82.8250 164° South 468 539 38,000  Level Atlanta Center
Fri 03:13:29 PM 35.5178 -82.7808 164° South 473 544 38,000  Level Atlanta Center
Fri 03:14:41 PM 35.4069 -82.7417 164° South 473 544 38,000  Level Atlanta Center
Fri 03:15:41 PM 35.2561 -82.6933 165° South 473 544 38,000  Level Atlanta Center
Fri 03:16:41 PM 35.1303 -82.6472 163° South 473 544 38,000  Level Atlanta Center
Fri 03:17:41 PM 35.0047 -82.6036 164° South 473 544 38,000  Level Atlanta Center
Fri 03:18:41 PM 34.8789 -82.5628 165° South 473 544 38,000  Level Atlanta Center
Fri 03:19:41 PM 34.7511 -82.5169 164° South 478 550 38,000 -300 Level Atlanta Center
Fri 03:20:41 PM 34.6253 -82.4736 164° South 478 550 37,400 -1,050 Descending Atlanta Center
Fri 03:21:41 PM 34.4933 -82.4283 164° South 478 550 35,900 -1,450 Descending Atlanta Center
Fri 03:22:41 PM 34.3633 -82.3831 164° South 484 557 34,500 -1,700 Descending Atlanta Center
Fri 03:23:41 PM 34.2311 -82.3403 165° South 494 568 32,500 -1,750 Descending Atlanta Center
Fri 03:24:41 PM 34.0781 -82.2883 164° South 511 588 31,000 -1,200 Descending Atlanta Center
Fri 03:25:41 PM 33.9733 -82.2503 163° South 494 568 30,100 -500 Descending Atlanta Center
Fri 03:26:41 PM 33.8389 -82.2056 165° South 487 560 30,000 -100 Descending Atlanta Center
Fri 03:27:41 PM 33.7047 -82.1561 163° South 493 567 29,900 -1,050 Descending Atlanta Center
Fri 03:28:41 PM 33.5803 -82.0839 154° Southeast 498 573 27,900 -2,039 Descending Atlanta Center
Fri 03:31:04 PM 33.3089 -81.9183 153° Southeast 495 570 23,000 -2,039 Descending Jacksonville Center
Fri 03:32:04 PM 33.2019 -81.8525 153° Southeast 426 490 21,000 -2,000 Descending Jacksonville Center
Fri 03:33:04 PM 33.0928 -81.7842 152° Southeast 421 484 19,000 -2,000 Descending Jacksonville Center
Fri 03:34:04 PM 32.9878 -81.7236 154° Southeast 426 490 17,000 -2,100 Descending Jacksonville Center
Fri 03:35:04 PM 32.8767 -81.6558 153° Southeast 426 490 14,800 -2,100 Descending Jacksonville Center
Fri 03:36:04 PM 32.7778 -81.5953 153° Southeast 409 471 12,800 -1,850 Descending Jacksonville Center
Fri 03:37:04 PM 32.6833 -81.5425 155° Southeast 397 457 11,100 -1,300 Descending Jacksonville Center
Fri 03:38:04 PM 32.5950 -81.4869 152° Southeast 353 406 10,200 -1,200 Descending Jacksonville Center
Fri 03:39:04 PM 32.5317 -81.4217 139° Southeast 317 365 8,700 -1,450 Descending Jacksonville Center
Fri 03:40:04 PM 32.4725 -81.3536 136° Southeast 290 334 7,300 -1,350 Descending Jacksonville Center
Fri 03:41:04 PM 32.4153 -81.2881 136° Southeast 290 334 6,000 -1,150 Descending Jacksonville Center
Fri 03:42:04 PM 32.3686 -81.2297 133° Southeast 274 315 5,000 -1,000 Descending Jacksonville Center
Fri 03:43:04 PM 32.3114 -81.1719 140° Southeast 274 315 4,000 -1,050 Descending Jacksonville Center
Fri 03:44:04 PM 32.2378 -81.1364 158° South 263 303 2,900 -900 Descending Jacksonville Center
Fri 03:45:04 PM 32.1750 -81.1156 164° South 249 287 2,200 -700 Descending Jacksonville Center
Fri 03:47:00 PM 32.1167 -81.2000 270° West  Level FlightAware Approximate
Fri 03:54:00 PM 32.1276 -81.2021 270° West  Level Estimated
Fri 03:55:00 PM 32.1276 -81.2021 270° West  Level Estimated
Fri 03:56:00 PM 32.1276 -81.2021 270° West  Level Estimated
Fri 03:57:00 PM 32.1276 -81.2021 270° West  Level Estimated
Fri 03:58:00 PM 32.1276 -81.2021 270° West  Level Estimated

Login

Don't have an account? Register now (free) for customized features, flight alerts, and more!